Time;durP1;ratioP1;P1;durP2;ratioP2;P2;SDS_P1;SDS_P2;PMS_P1;PMS_P2;Temp;Humidity;BMP_temperature;BMP_pressure;BME280_temperature;BME280_humidity;BME280_pressure;Samples;Min_cycle;Max_cycle;Signal;HPM_P1;HPM_P2
2022/11/29 00:00:40;;;;;;;24.02;19.08;;;3.40;99.90;;;;;;5006234;28;20182;-72
2022/11/29 00:03:05;;;;;;;23.38;17.98;;;3.30;99.90;;;;;;5000796;28;20205;-73
2022/11/29 00:05:33;;;;;;;22.45;17.70;;;3.40;99.90;;;;;;4994178;28;20201;-72
2022/11/29 00:07:59;;;;;;;24.05;17.85;;;3.50;99.90;;;;;;4994971;28;20574;-72
2022/11/29 00:10:24;;;;;;;23.77;17.73;;;3.50;99.90;;;;;;4999644;28;20228;-73
2022/11/29 00:12:50;;;;;;;22.33;17.13;;;3.50;99.90;;;;;;4995323;28;20182;-73
2022/11/29 00:15:16;;;;;;;24.92;17.67;;;3.50;99.90;;;;;;4999666;28;20234;-73
2022/11/29 00:17:41;;;;;;;21.15;16.77;;;3.50;99.90;;;;;;4988999;28;20190;-73
2022/11/29 00:20:09;;;;;;;22.38;17.30;;;3.50;99.90;;;;;;4993449;28;20291;-74
2022/11/29 00:22:35;;;;;;;24.80;17.80;;;3.50;99.90;;;;;;4993746;28;20347;-73
2022/11/29 00:25:01;;;;;;;23.52;18.42;;;3.50;99.90;;;;;;4993815;28;20280;-73
2022/11/29 00:27:26;;;;;;;22.88;18.33;;;3.40;99.90;;;;;;4986323;28;20190;-73
2022/11/29 00:29:52;;;;;;;23.00;17.98;;;3.40;99.90;;;;;;4992408;28;20174;-73
2022/11/29 00:32:17;;;;;;;19.20;16.30;;;3.40;99.90;;;;;;5001539;28;20182;-73
2022/11/29 00:34:43;;;;;;;20.45;17.05;;;3.40;99.90;;;;;;4993501;28;20174;-73
2022/11/29 00:37:09;;;;;;;21.15;17.33;;;3.40;99.90;;;;;;4989316;28;20257;-73
2022/11/29 00:39:34;;;;;;;20.42;16.42;;;3.40;99.90;;;;;;4992320;28;20185;-73
2022/11/29 00:42:00;;;;;;;23.60;17.23;;;3.40;99.90;;;;;;4999170;28;20237;-73
2022/11/29 00:44:25;;;;;;;25.42;18.55;;;3.60;99.90;;;;;;4999739;28;20419;-73
2022/11/29 00:46:51;;;;;;;21.63;17.77;;;3.60;99.90;;;;;;4987417;28;20665;-73
2022/11/29 00:49:17;;;;;;;20.92;16.95;;;3.50;99.90;;;;;;4993461;28;20189;-73
2022/11/29 00:51:42;;;;;;;25.38;18.20;;;3.60;99.90;;;;;;4993685;28;20579;-73
2022/11/29 00:54:08;;;;;;;22.73;17.75;;;3.60;99.90;;;;;;4984225;28;20200;-73
2022/11/29 00:56:33;;;;;;;20.38;15.65;;;3.60;99.90;;;;;;4993135;28;20236;-73
2022/11/29 00:58:59;;;;;;;21.45;17.10;;;3.60;99.90;;;;;;4993330;28;20221;-73
2022/11/29 01:01:25;;;;;;;24.50;17.58;;;3.60;99.90;;;;;;4992331;28;20217;-73
2022/11/29 01:03:50;;;;;;;21.13;16.85;;;3.60;99.90;;;;;;4998552;28;20178;-73
2022/11/29 01:06:17;;;;;;;21.35;17.02;;;3.60;99.90;;;;;;4993085;28;20602;-72
2022/11/29 01:08:47;;;;;;;24.75;17.08;;;3.60;99.90;;;;;;4993233;28;20603;-72
2022/11/29 01:11:18;;;;;;;23.17;18.33;;;3.60;99.90;;;;;;4987257;28;20216;-72
2022/11/29 01:13:45;;;;;;;24.05;16.83;;;3.50;99.90;;;;;;4996953;28;20185;-74
2022/11/29 01:16:12;;;;;;;22.25;16.83;;;3.50;99.90;;;;;;4991624;28;20202;-73
2022/11/29 01:18:37;;;;;;;19.73;15.57;;;3.50;99.90;;;;;;5008499;28;20170;-74
2022/11/29 01:21:07;;;;;;;21.80;16.77;;;3.60;99.90;;;;;;4985802;28;20184;-72
2022/11/29 01:23:33;;;;;;;21.52;16.98;;;3.60;99.90;;;;;;4992531;28;20173;-74
2022/11/29 01:26:02;;;;;;;22.17;17.08;;;3.50;99.90;;;;;;4992865;28;20230;-74
2022/11/29 01:28:28;;;;;;;22.05;18.23;;;3.50;99.90;;;;;;4992633;28;20186;-74
2022/11/29 01:30:54;;;;;;;25.63;18.05;;;3.50;99.90;;;;;;4992339;28;20185;-74
2022/11/29 01:33:20;;;;;;;20.83;16.77;;;3.50;99.90;;;;;;4993559;28;20190;-73
2022/11/29 01:35:50;;;;;;;23.10;16.80;;;3.50;99.90;;;;;;4994621;28;20289;-75
2022/11/29 01:38:17;;;;;;;22.35;17.90;;;3.50;99.90;;;;;;4995175;28;20260;-75
2022/11/29 01:40:43;;;;;;;22.73;17.88;;;3.50;99.90;;;;;;4986399;28;20186;-74
2022/11/29 01:43:16;;;;;;;23.98;18.55;;;3.60;99.90;;;;;;4998100;28;20202;-72
2022/11/29 01:45:42;;;;;;;20.08;16.63;;;3.60;99.90;;;;;;4984677;28;20190;-72
2022/11/29 01:48:09;;;;;;;22.38;18.20;;;3.50;99.90;;;;;;4987173;28;20194;-73
2022/11/29 01:50:36;;;;;;;21.50;16.83;;;3.50;99.90;;;;;;4999546;28;20703;-73
2022/11/29 01:53:02;;;;;;;22.95;16.90;;;3.50;99.90;;;;;;4997591;28;20579;-73
2022/11/29 01:55:28;;;;;;;24.95;18.52;;;3.60;99.90;;;;;;4992125;28;20202;-73
2022/11/29 01:57:53;;;;;;;20.20;16.50;;;3.60;99.90;;;;;;4986976;28;20201;-73
2022/11/29 02:00:19;;;;;;;22.90;17.60;;;3.60;99.90;;;;;;4992170;28;20189;-73
2022/11/29 02:02:54;;;;;;;22.35;18.23;;;3.60;99.90;;;;;;4991990;28;20340;-73
2022/11/29 02:05:20;;;;;;;23.02;17.67;;;3.60;99.90;;;;;;5002896;28;20197;-72
2022/11/29 02:07:50;;;;;;;20.58;17.23;;;3.70;99.90;;;;;;4993198;28;20201;-71
2022/11/29 02:10:16;;;;;;;21.80;17.38;;;3.70;99.90;;;;;;4991984;28;20312;-72
2022/11/29 02:12:42;;;;;;;22.20;18.13;;;3.70;99.90;;;;;;4986831;28;20178;-72
2022/11/29 02:15:38;;;;;;;20.40;17.02;;;3.70;99.90;;;;;;4984324;28;20285;-74
2022/11/29 02:18:15;;;;;;;22.63;17.20;;;3.70;99.90;;;;;;4957553;28;20669;-72
2022/11/29 02:20:59;;;;;;;22.65;17.08;;;3.70;99.90;;;;;;4995642;28;20189;-71
2022/11/29 02:24:13;;;;;;;21.77;17.67;;;3.70;99.90;;;;;;4982889;28;20197;-74
2022/11/29 02:27:03;;;;;;;20.42;16.65;;;3.60;99.90;;;;;;4960743;28;20214;-72
2022/11/29 02:29:56;;;;;;;22.30;17.67;;;3.60;99.90;;;;;;4990949;28;20204;-73
2022/11/29 02:32:40;;;;;;;23.95;17.67;;;3.60;99.90;;;;;;4984579;28;20166;-72
2022/11/29 02:35:43;;;;;;;21.90;17.60;;;3.50;99.90;;;;;;4993226;28;20210;-72
2022/11/29 02:38:27;;;;;;;22.48;18.25;;;3.50;99.90;;;;;;4994758;28;20177;-72
2022/11/29 02:41:26;;;;;;;21.55;17.50;;;3.60;99.90;;;;;;4990760;28;20205;-73
2022/11/29 02:44:21;;;;;;;23.33;17.58;;;3.50;99.90;;;;;;4981424;28;20615;-73
2022/11/29 02:46:47;;;;;;;23.35;18.15;;;3.50;99.90;;;;;;4985267;28;20689;-73
2022/11/29 02:49:24;;;;;;;21.23;16.85;;;3.60;99.90;;;;;;4994302;28;20184;-73
2022/11/29 02:52:01;;;;;;;25.02;18.55;;;3.60;99.90;;;;;;4984170;28;20675;-72
2022/11/29 02:54:40;;;;;;;25.45;19.38;;;3.50;99.90;;;;;;4991216;28;20182;-72
2022/11/29 02:57:32;;;;;;;24.10;17.45;;;3.40;99.90;;;;;;4990734;28;20180;-73
2022/11/29 03:00:08;;;;;;;21.15;17.05;;;3.40;99.90;;;;;;4986387;28;20205;-73
2022/11/29 03:02:47;;;;;;;23.08;17.45;;;3.50;99.90;;;;;;4991476;28;20288;-73
2022/11/29 03:05:29;;;;;;;25.48;18.40;;;3.50;99.90;;;;;;4984807;28;20190;-74
2022/11/29 03:08:42;;;;;;;25.48;18.88;;;3.50;99.90;;;;;;4985295;28;20178;-73
2022/11/29 03:11:11;;;;;;;21.90;17.17;;;3.40;99.90;;;;;;5000779;28;20231;-74
2022/11/29 03:13:55;;;;;;;20.75;16.95;;;3.50;99.90;;;;;;4995541;28;20185;-73
2022/11/29 03:16:45;;;;;;;26.52;19.75;;;3.60;99.90;;;;;;4992653;28;20200;-73
2022/11/29 03:19:23;;;;;;;22.23;18.38;;;3.50;99.90;;;;;;4991108;28;20182;-73
2022/11/29 03:22:04;;;;;;;25.25;19.17;;;3.50;99.90;;;;;;4991640;28;20332;-73
2022/11/29 03:24:41;;;;;;;21.52;17.23;;;3.50;99.90;;;;;;5006193;28;20265;-73
2022/11/29 03:27:11;;;;;;;25.33;18.73;;;3.50;99.90;;;;;;4996511;28;20567;-73
2022/11/29 03:29:46;;;;;;;22.90;18.15;;;3.50;99.90;;;;;;4990499;28;20262;-73
2022/11/29 03:32:32;;;;;;;26.77;17.30;;;3.50;99.90;;;;;;4997342;28;20232;-73
2022/11/29 03:35:12;;;;;;;21.40;17.40;;;3.50;99.90;;;;;;4991072;28;20284;-73
2022/11/29 03:37:47;;;;;;;24.25;18.23;;;3.60;99.90;;;;;;4985059;28;20651;-73
2022/11/29 03:40:20;;;;;;;25.80;18.38;;;3.70;99.90;;;;;;4991264;28;20592;-72
2022/11/29 03:42:58;;;;;;;25.13;17.55;;;3.60;99.90;;;;;;4986558;28;20206;-73
2022/11/29 03:45:32;;;;;;;21.83;17.60;;;3.60;99.90;;;;;;4996664;28;20711;-72
2022/11/29 03:48:24;;;;;;;21.02;17.35;;;3.60;99.90;;;;;;4988299;28;20260;-73
2022/11/29 03:50:55;;;;;;;23.27;17.05;;;3.60;99.90;;;;;;4981786;28;20222;-73
2022/11/29 03:53:46;;;;;;;22.33;18.52;;;3.60;99.90;;;;;;4990086;28;20185;-73
2022/11/29 03:56:21;;;;;;;23.20;17.42;;;3.50;99.90;;;;;;4991471;28;20578;-73
2022/11/29 03:59:14;;;;;;;21.90;17.20;;;3.50;99.90;;;;;;4993798;28;20543;-73
2022/11/29 04:02:04;;;;;;;20.05;16.27;;;3.50;99.90;;;;;;4984080;28;20813;-73
2022/11/29 04:04:38;;;;;;;21.67;17.92;;;3.50;99.90;;;;;;4987674;28;20185;-73
2022/11/29 04:07:04;;;;;;;21.48;16.88;;;3.60;99.90;;;;;;4992790;28;20614;-73
2022/11/29 04:09:38;;;;;;;22.05;17.75;;;3.60;99.90;;;;;;4991005;28;20261;-73
2022/11/29 04:12:14;;;;;;;23.80;17.85;;;3.60;99.90;;;;;;5004491;28;20208;-73
2022/11/29 04:15:05;;;;;;;22.00;16.63;;;3.60;99.90;;;;;;4991357;28;20174;-72
2022/11/29 04:17:49;;;;;;;22.73;17.08;;;3.70;99.90;;;;;;4987164;28;20182;-74
2022/11/29 04:20:27;;;;;;;23.23;17.20;;;3.70;99.90;;;;;;4983357;28;20185;-73
2022/11/29 04:23:32;;;;;;;21.85;17.88;;;3.70;99.90;;;;;;4985088;28;20205;-73
2022/11/29 04:26:34;;;;;;;21.95;17.77;;;3.60;99.90;;;;;;4984951;28;20277;-73
2022/11/29 04:29:06;;;;;;;21.50;16.65;;;3.60;99.90;;;;;;4984111;28;20541;-73
2022/11/29 04:31:52;;;;;;;26.08;18.20;;;3.60;99.90;;;;;;4988477;28;20672;-73
2022/11/29 04:34:46;;;;;;;23.42;17.67;;;3.60;99.90;;;;;;4989926;28;20224;-74
2022/11/29 04:37:54;;;;;;;21.83;16.38;;;3.60;99.90;;;;;;4988274;28;20170;-73
2022/11/29 04:40:57;;;;;;;24.63;18.17;;;3.70;99.90;;;;;;4985542;28;20186;-73
2022/11/29 04:43:47;;;;;;;20.73;15.30;;;3.70;99.90;;;;;;4986658;28;20285;-73
2022/11/29 04:46:52;;;;;;;23.55;16.80;;;3.70;99.90;;;;;;4989934;28;20202;-74
2022/11/29 04:49:51;;;;;;;26.05;17.98;;;3.80;99.90;;;;;;4919191;28;20354;-74
2022/11/29 04:52:40;;;;;;;21.40;17.13;;;3.70;99.90;;;;;;4989483;28;20190;-74
2022/11/29 04:55:47;;;;;;;21.85;17.73;;;3.60;99.90;;;;;;4989375;28;20571;-73
2022/11/29 04:58:37;;;;;;;21.95;16.48;;;3.70;99.90;;;;;;4986972;28;20189;-73
2022/11/29 05:01:28;;;;;;;22.20;17.40;;;3.70;99.90;;;;;;4989338;28;20186;-73
2022/11/29 05:04:07;;;;;;;22.20;16.95;;;3.70;99.90;;;;;;4989883;28;20273;-72
2022/11/29 05:06:38;;;;;;;20.33;16.25;;;3.70;99.90;;;;;;5005362;28;20232;-72
2022/11/29 05:09:23;;;;;;;24.50;18.17;;;3.70;99.90;;;;;;4991567;28;20727;-73
2022/11/29 05:11:55;;;;;;;21.27;17.23;;;3.70;99.90;;;;;;4986226;28;20189;-73
2022/11/29 05:14:38;;;;;;;22.10;16.73;;;3.80;99.90;;;;;;4998926;28;20215;-71
2022/11/29 05:17:07;;;;;;;20.35;16.52;;;3.70;99.90;;;;;;4993127;28;20664;-74
2022/11/29 05:19:51;;;;;;;23.38;18.10;;;3.70;99.90;;;;;;4989817;28;20672;-73
2022/11/29 05:22:32;;;;;;;19.77;17.10;;;3.80;99.90;;;;;;4996170;28;20206;-71
2022/11/29 05:25:28;;;;;;;22.23;16.92;;;3.80;99.90;;;;;;4998519;28;20225;-74
2022/11/29 05:28:19;;;;;;;19.67;15.88;;;3.80;99.90;;;;;;4988192;28;20727;-73
2022/11/29 05:31:10;;;;;;;21.63;16.00;;;3.90;99.90;;;;;;4985212;28;20190;-73
2022/11/29 05:33:50;;;;;;;22.58;17.50;;;3.90;99.90;;;;;;4991275;28;20174;-73
2022/11/29 05:36:34;;;;;;;21.00;16.63;;;3.80;99.90;;;;;;4996152;28;20272;-72
2022/11/29 05:39:35;;;;;;;23.48;17.88;;;3.80;99.90;;;;;;4984853;28;20613;-73
2022/11/29 05:42:20;;;;;;;22.25;17.98;;;3.90;99.90;;;;;;4986256;28;20209;-72
2022/11/29 05:45:06;;;;;;;24.63;18.73;;;3.90;99.90;;;;;;4992366;28;20182;-72
2022/11/29 05:47:48;;;;;;;23.70;17.05;;;3.80;99.90;;;;;;4992137;28;20184;-73
2022/11/29 05:50:25;;;;;;;27.50;19.98;;;3.80;99.90;;;;;;4995603;28;20186;-73
2022/11/29 05:53:07;;;;;;;23.77;19.60;;;3.80;99.90;;;;;;4984469;28;20301;-72
2022/11/29 05:55:39;;;;;;;25.65;20.25;;;3.70;99.90;;;;;;4988566;28;20596;-73
2022/11/29 05:58:21;;;;;;;21.92;18.95;;;3.70;99.90;;;;;;4989977;28;20194;-73
2022/11/29 06:01:14;;;;;;;24.52;18.52;;;3.80;99.90;;;;;;4990964;28;20197;-73
2022/11/29 06:04:03;;;;;;;20.90;17.02;;;3.80;99.90;;;;;;4979121;28;20205;-74
2022/11/29 06:06:38;;;;;;;24.52;18.90;;;3.80;99.90;;;;;;4990052;28;20251;-72
2022/11/29 06:09:31;;;;;;;25.08;17.75;;;3.80;99.90;;;;;;4990466;28;20184;-72
2022/11/29 06:12:04;;;;;;;23.75;18.20;;;3.80;99.90;;;;;;4969408;28;20190;-73
2022/11/29 06:14:51;;;;;;;23.27;17.90;;;3.80;99.90;;;;;;4998407;28;20260;-74
2022/11/29 06:17:40;;;;;;;25.73;19.00;;;3.80;99.90;;;;;;4989301;28;20261;-72
2022/11/29 06:20:27;;;;;;;23.48;17.83;;;3.80;99.90;;;;;;4993228;28;20550;-72
2022/11/29 06:23:23;;;;;;;23.02;18.48;;;3.90;99.90;;;;;;4984349;28;20208;-72
2022/11/29 06:26:28;;;;;;;24.42;18.85;;;3.80;99.90;;;;;;4984002;28;20600;-74
2022/11/29 06:28:56;;;;;;;24.10;18.13;;;3.90;99.90;;;;;;4985731;28;20181;-74
2022/11/29 06:31:43;;;;;;;22.33;17.23;;;3.80;99.90;;;;;;4999504;28;20240;-74
2022/11/29 06:34:08;;;;;;;20.85;17.48;;;3.80;99.90;;;;;;4989602;28;20182;-78
2022/11/29 06:36:57;;;;;;;23.17;18.23;;;3.90;99.90;;;;;;4987017;28;21014;-77
2022/11/29 06:39:23;;;;;;;23.98;18.45;;;3.80;99.90;;;;;;4979150;28;20190;-77
2022/11/29 06:41:49;;;;;;;21.77;18.15;;;3.80;99.90;;;;;;4991520;28;20221;-75
2022/11/29 06:44:15;;;;;;;21.38;17.38;;;3.80;99.90;;;;;;4988243;28;20220;-77
2022/11/29 06:46:59;;;;;;;25.60;18.42;;;3.80;99.90;;;;;;4992054;28;20256;-75
2022/11/29 06:49:28;;;;;;;22.08;18.30;;;3.90;99.90;;;;;;4994758;28;20189;-75
2022/11/29 06:52:12;;;;;;;21.95;17.13;;;3.90;99.90;;;;;;4993998;28;20193;-73
2022/11/29 06:54:47;;;;;;;21.15;17.95;;;3.90;99.90;;;;;;4992141;28;20683;-73
2022/11/29 06:57:50;;;;;;;24.13;18.73;;;4.00;99.90;;;;;;4994178;28;20189;-73
2022/11/29 07:00:25;;;;;;;21.88;16.77;;;4.00;99.90;;;;;;4994539;28;20184;-73
2022/11/29 07:03:18;;;;;;;23.05;18.73;;;4.10;99.90;;;;;;4987077;28;20772;-73
2022/11/29 07:05:45;;;;;;;19.77;16.13;;;4.10;99.90;;;;;;4993480;28;20715;-73
2022/11/29 07:08:22;;;;;;;22.25;17.65;;;4.00;99.90;;;;;;4995633;28;20220;-74
2022/11/29 07:10:52;;;;;;;24.98;17.27;;;4.10;99.90;;;;;;4981575;28;20197;-72
2022/11/29 07:13:18;;;;;;;23.52;18.02;;;4.10;99.90;;;;;;4996581;28;22191;-75
2022/11/29 07:16:20;;;;;;;21.17;16.85;;;4.00;99.90;;;;;;4995225;28;20504;-76
2022/11/29 07:19:05;;;;;;;24.17;18.77;;;4.10;99.90;;;;;;4987338;28;20193;-76
2022/11/29 07:21:31;;;;;;;23.65;17.65;;;4.10;99.90;;;;;;4995281;28;20233;-76
2022/11/29 07:24:09;;;;;;;20.67;17.42;;;4.10;99.90;;;;;;4991817;28;20217;-73
2022/11/29 07:26:48;;;;;;;24.02;18.48;;;4.10;99.90;;;;;;4993093;28;20719;-73
2022/11/29 07:29:40;;;;;;;21.10;17.15;;;4.20;99.90;;;;;;4984086;28;20209;-73
2022/11/29 07:32:25;;;;;;;21.42;17.65;;;4.20;99.90;;;;;;4992353;28;20185;-72
2022/11/29 07:35:09;;;;;;;23.35;18.15;;;4.20;99.90;;;;;;4997363;28;20587;-73
2022/11/29 07:38:02;;;;;;;21.00;17.65;;;4.30;99.90;;;;;;4992480;28;20317;-72
2022/11/29 07:40:51;;;;;;;22.23;17.83;;;4.20;99.90;;;;;;4994606;28;20204;-72
2022/11/29 07:43:31;;;;;;;24.35;18.58;;;4.20;99.90;;;;;;4992674;28;20373;-73
2022/11/29 07:45:57;;;;;;;23.75;18.85;;;4.20;99.90;;;;;;4986158;28;20198;-73
2022/11/29 07:48:23;;;;;;;20.77;17.95;;;4.30;99.90;;;;;;5003741;28;20174;-73
2022/11/29 07:50:48;;;;;;;23.88;19.30;;;4.30;99.90;;;;;;4997182;28;20181;-72
2022/11/29 07:53:19;;;;;;;21.35;17.02;;;4.30;99.90;;;;;;4989743;28;20201;-75
2022/11/29 07:55:45;;;;;;;24.30;18.77;;;4.40;99.90;;;;;;4992535;28;20202;-72
2022/11/29 07:58:12;;;;;;;23.35;18.92;;;4.40;99.90;;;;;;4991569;28;20656;-73
2022/11/29 08:00:38;;;;;;;23.25;17.92;;;4.30;99.90;;;;;;4989791;28;20182;-73
2022/11/29 08:03:04;;;;;;;23.17;18.58;;;4.30;99.90;;;;;;4991662;28;20232;-74
2022/11/29 08:05:30;;;;;;;20.45;17.55;;;4.30;99.90;;;;;;4996830;28;20326;-72
2022/11/29 08:07:56;;;;;;;24.13;18.42;;;4.30;99.90;;;;;;4995229;28;20198;-73
2022/11/29 08:10:21;;;;;;;23.52;18.25;;;4.40;99.90;;;;;;4990466;28;20187;-73
2022/11/29 08:12:49;;;;;;;21.23;17.13;;;4.30;99.90;;;;;;4992627;28;20190;-73
2022/11/29 08:15:17;;;;;;;20.92;17.13;;;4.40;99.90;;;;;;4994508;28;21793;-72
2022/11/29 08:17:42;;;;;;;21.30;17.58;;;4.50;99.90;;;;;;4989814;28;20186;-71
2022/11/29 08:20:12;;;;;;;21.77;18.10;;;4.40;99.90;;;;;;4989750;28;20182;-75
2022/11/29 08:22:37;;;;;;;25.85;19.02;;;4.40;99.90;;;;;;4988427;28;20260;-73
2022/11/29 08:25:04;;;;;;;24.30;18.25;;;4.30;99.90;;;;;;4993948;28;20193;-73
2022/11/29 08:27:31;;;;;;;23.73;18.42;;;4.50;99.90;;;;;;4989608;28;20273;-74
2022/11/29 08:29:56;;;;;;;24.50;18.30;;;4.50;99.90;;;;;;4989576;28;20269;-73
2022/11/29 08:32:22;;;;;;;21.52;17.50;;;4.50;99.90;;;;;;4989206;28;20257;-72
2022/11/29 08:34:48;;;;;;;22.60;17.73;;;4.60;99.90;;;;;;4989417;28;20194;-73
2022/11/29 08:37:13;;;;;;;21.23;18.05;;;4.70;99.90;;;;;;4998474;28;20197;-75
2022/11/29 08:39:39;;;;;;;21.15;18.20;;;4.70;99.90;;;;;;5000335;28;20188;-75
2022/11/29 08:42:04;;;;;;;21.35;18.45;;;4.80;99.90;;;;;;4990800;28;20209;-75
2022/11/29 08:44:30;;;;;;;20.92;17.52;;;4.80;99.90;;;;;;4993586;28;20185;-79
2022/11/29 08:49:59;;;;;;;20.15;16.80;;;4.80;99.90;;;;;;5004909;28;20177;-79
2022/11/29 08:55:10;;;;;;;24.15;17.92;;;4.90;99.90;;;;;;4999784;28;20284;-77
2022/11/29 08:57:36;;;;;;;22.98;17.98;;;4.90;99.90;;;;;;5000858;28;20206;-78
2022/11/29 09:00:04;;;;;;;20.45;16.23;;;4.90;99.90;;;;;;4997531;28;20283;-79
2022/11/29 09:02:29;;;;;;;21.05;17.77;;;5.00;99.90;;;;;;4995524;28;20213;-79
2022/11/29 09:04:55;;;;;;;21.33;16.38;;;5.00;99.90;;;;;;4992857;28;20190;-76
2022/11/29 09:07:20;;;;;;;20.88;17.33;;;5.00;99.90;;;;;;4995102;28;20566;-80
2022/11/29 09:09:46;;;;;;;20.25;16.88;;;5.00;99.90;;;;;;4992748;28;20204;-73
2022/11/29 09:12:12;;;;;;;21.60;17.02;;;5.10;99.90;;;;;;4990107;28;20182;-74
2022/11/29 09:14:37;;;;;;;19.77;16.85;;;5.10;99.90;;;;;;4996723;28;20603;-73
2022/11/29 09:17:03;;;;;;;20.30;17.02;;;5.10;99.90;;;;;;4991588;28;20201;-73
2022/11/29 09:19:29;;;;;;;18.67;16.38;;;5.10;99.90;;;;;;4977049;28;20198;-73
2022/11/29 09:21:55;;;;;;;22.27;17.90;;;5.10;99.90;;;;;;4991773;28;20711;-73
2022/11/29 09:24:20;;;;;;;21.60;15.63;;;5.20;99.90;;;;;;4992558;28;20182;-75
2022/11/29 09:26:47;;;;;;;22.30;17.85;;;5.40;99.90;;;;;;4990934;28;20549;-75
2022/11/29 09:29:14;;;;;;;19.63;16.50;;;5.40;99.90;;;;;;4991752;28;20216;-75
2022/11/29 09:31:40;;;;;;;20.42;16.40;;;5.40;99.90;;;;;;4993207;28;20240;-74
2022/11/29 09:34:06;;;;;;;22.52;16.77;;;5.40;99.90;;;;;;4992279;28;20201;-74
2022/11/29 09:36:31;;;;;;;19.67;16.35;;;5.40;99.90;;;;;;4990028;28;20691;-74
2022/11/29 09:39:01;;;;;;;19.05;16.00;;;5.40;99.90;;;;;;4989556;28;20174;-74
2022/11/29 09:41:29;;;;;;;17.67;15.68;;;5.30;99.90;;;;;;4984562;28;20668;-74
2022/11/29 09:44:27;;;;;;;17.55;15.35;;;5.30;99.90;;;;;;4984941;28;20198;-74
2022/11/29 09:47:14;;;;;;;17.30;15.48;;;5.30;99.90;;;;;;4977525;28;20201;-74
2022/11/29 09:50:01;;;;;;;19.15;16.65;;;5.30;99.90;;;;;;4989101;28;20256;-72
2022/11/29 09:52:34;;;;;;;21.15;16.15;;;5.40;99.90;;;;;;4986967;28;20185;-74
2022/11/29 09:55:25;;;;;;;18.83;16.30;;;5.50;99.90;;;;;;4986979;28;20280;-72
2022/11/29 09:57:53;;;;;;;19.42;15.20;;;5.50;99.90;;;;;;4989023;28;20564;-75
2022/11/29 10:00:20;;;;;;;18.80;15.88;;;5.50;99.90;;;;;;4983037;28;20191;-74
2022/11/29 10:03:12;;;;;;;20.10;16.02;;;5.50;99.90;;;;;;4991551;28;20334;-75
2022/11/29 10:05:48;;;;;;;19.90;16.45;;;5.60;99.90;;;;;;4974172;28;20213;-73
2022/11/29 10:08:31;;;;;;;19.58;16.05;;;5.70;99.90;;;;;;4997970;28;20820;-75
2022/11/29 10:11:14;;;;;;;21.20;16.52;;;5.70;99.90;;;;;;4978416;28;20178;-75
2022/11/29 10:13:46;;;;;;;22.15;17.85;;;5.80;99.90;;;;;;4988642;28;20232;-74
2022/11/29 10:16:18;;;;;;;22.20;17.38;;;5.90;99.90;;;;;;4989661;28;20212;-75
2022/11/29 10:19:04;;;;;;;23.15;16.08;;;5.70;99.90;;;;;;4990083;28;20268;-74
2022/11/29 10:21:37;;;;;;;19.90;15.27;;;5.70;99.90;;;;;;4996835;28;20185;-74
2022/11/29 10:24:12;;;;;;;18.15;15.68;;;5.70;99.90;;;;;;4984129;28;20264;-73
2022/11/29 10:26:37;;;;;;;19.52;15.88;;;5.60;99.90;;;;;;4980022;28;20190;-75
2022/11/29 10:29:03;;;;;;;17.75;15.77;;;5.70;99.90;;;;;;4991416;28;20584;-75
2022/11/29 10:31:36;;;;;;;18.67;16.17;;;5.70;99.90;;;;;;4988962;28;20192;-74
2022/11/29 10:34:11;;;;;;;19.35;16.45;;;5.70;99.90;;;;;;4986095;28;20213;-74
2022/11/29 10:36:42;;;;;;;20.15;17.20;;;5.70;99.90;;;;;;4991224;28;20197;-72
2022/11/29 10:39:21;;;;;;;20.00;16.15;;;5.80;99.90;;;;;;4990330;28;20182;-74
2022/11/29 10:41:53;;;;;;;20.05;16.10;;;5.70;99.90;;;;;;4984623;28;20215;-73
2022/11/29 10:44:19;;;;;;;22.58;16.60;;;5.70;99.90;;;;;;4989684;28;20212;-74
2022/11/29 10:46:45;;;;;;;19.48;15.50;;;5.70;99.90;;;;;;4991230;28;20197;-74
2022/11/29 10:49:14;;;;;;;21.20;15.75;;;5.80;99.90;;;;;;4989468;28;20244;-72
2022/11/29 10:51:40;;;;;;;17.33;14.63;;;5.90;99.90;;;;;;4991314;28;20579;-73
2022/11/29 10:54:24;;;;;;;18.50;16.50;;;5.90;99.90;;;;;;4990706;28;20201;-73
2022/11/29 10:56:50;;;;;;;18.88;16.27;;;5.80;99.90;;;;;;4981968;28;20225;-74
2022/11/29 10:59:22;;;;;;;19.17;15.23;;;5.80;99.90;;;;;;4991167;28;20208;-74
2022/11/29 11:01:48;;;;;;;18.05;15.02;;;5.80;99.90;;;;;;4985408;28;20198;-72
2022/11/29 11:04:20;;;;;;;19.25;16.60;;;5.90;99.90;;;;;;4990568;28;20732;-73
2022/11/29 11:06:50;;;;;;;19.58;16.17;;;6.00;99.90;;;;;;4984682;28;20665;-74
2022/11/29 11:09:20;;;;;;;20.90;16.70;;;6.00;99.90;;;;;;4991753;28;20213;-74
2022/11/29 11:11:52;;;;;;;20.25;15.35;;;5.90;99.90;;;;;;4985762;28;20174;-74
2022/11/29 11:14:25;;;;;;;20.60;16.65;;;6.00;99.90;;;;;;4983957;28;20178;-74
2022/11/29 11:16:51;;;;;;;20.80;16.90;;;6.00;99.90;;;;;;4990148;28;20288;-73
2022/11/29 11:19:33;;;;;;;17.35;15.43;;;6.10;99.90;;;;;;4991484;28;20182;-73
2022/11/29 11:22:02;;;;;;;19.42;16.27;;;6.10;99.90;;;;;;4985946;28;20676;-74
2022/11/29 11:24:31;;;;;;;18.98;15.73;;;6.10;99.90;;;;;;4990742;28;20185;-72
2022/11/29 11:26:58;;;;;;;16.95;14.07;;;6.10;99.90;;;;;;4985517;28;20194;-74
2022/11/29 11:29:27;;;;;;;16.27;14.07;;;6.10;99.90;;;;;;4988825;28;20210;-74
2022/11/29 11:31:58;;;;;;;18.23;15.02;;;6.20;99.90;;;;;;4993250;28;20186;-74
2022/11/29 11:34:35;;;;;;;17.73;15.43;;;6.20;99.90;;;;;;4993318;28;20213;-74
2022/11/29 11:37:23;;;;;;;16.25;14.10;;;6.20;99.90;;;;;;4994851;28;20277;-71
2022/11/29 11:39:55;;;;;;;19.08;15.70;;;6.20;99.90;;;;;;4994942;28;20190;-73
2022/11/29 11:42:38;;;;;;;16.98;14.40;;;6.10;99.90;;;;;;4994477;28;20201;-73
2022/11/29 11:45:26;;;;;;;15.38;13.32;;;6.00;99.90;;;;;;4994564;28;20193;-74
2022/11/29 11:47:54;;;;;;;18.88;15.25;;;6.10;99.90;;;;;;4992201;28;20181;-74
2022/11/29 11:50:48;;;;;;;16.40;14.32;;;6.20;99.90;;;;;;4994760;28;20724;-74
2022/11/29 11:53:27;;;;;;;18.50;14.23;;;6.20;99.90;;;;;;4990912;28;20309;-74
2022/11/29 11:55:55;;;;;;;19.13;14.73;;;6.20;99.90;;;;;;4992753;28;20252;-74
2022/11/29 11:58:22;;;;;;;14.52;12.95;;;6.30;99.90;;;;;;4996961;28;20185;-74
2022/11/29 12:00:54;;;;;;;16.17;13.70;;;6.30;99.90;;;;;;4994184;28;20178;-74
2022/11/29 12:03:23;;;;;;;15.23;13.48;;;6.30;99.90;;;;;;4991085;28;20202;-74
2022/11/29 12:05:51;;;;;;;18.60;14.57;;;6.20;99.90;;;;;;4994302;28;20193;-74
2022/11/29 12:08:17;;;;;;;16.48;14.55;;;6.00;99.90;;;;;;4994596;28;20261;-74
2022/11/29 12:10:44;;;;;;;17.50;14.43;;;6.10;99.90;;;;;;4993052;28;20177;-74
2022/11/29 12:13:23;;;;;;;17.00;14.88;;;6.10;99.90;;;;;;4992751;28;20182;-72
2022/11/29 12:15:49;;;;;;;18.92;15.38;;;6.10;99.90;;;;;;4987303;28;20197;-74
2022/11/29 12:18:33;;;;;;;17.77;15.27;;;6.00;99.90;;;;;;4994232;28;20182;-74
2022/11/29 12:21:07;;;;;;;18.08;15.13;;;6.20;99.90;;;;;;4982978;28;20179;-74
2022/11/29 12:23:43;;;;;;;18.60;16.00;;;6.20;99.90;;;;;;4992860;28;20691;-74
2022/11/29 12:26:16;;;;;;;16.77;14.45;;;6.30;99.90;;;;;;4994134;28;20224;-74
2022/11/29 12:28:44;;;;;;;16.20;14.20;;;6.30;99.90;;;;;;4986259;28;20243;-74
2022/11/29 12:31:43;;;;;;;17.77;14.95;;;6.30;99.90;;;;;;4987824;28;20546;-74
2022/11/29 12:34:27;;;;;;;19.98;14.57;;;6.30;99.90;;;;;;4990624;28;20176;-73
2022/11/29 12:37:21;;;;;;;17.33;15.27;;;6.40;99.90;;;;;;4990719;28;20240;-73
2022/11/29 12:39:48;;;;;;;16.77;14.20;;;6.50;99.90;;;;;;4986697;28;20184;-73
2022/11/29 12:42:55;;;;;;;19.40;15.48;;;6.60;99.90;;;;;;4993793;28;20197;-74
2022/11/29 12:45:40;;;;;;;18.92;15.77;;;6.50;99.90;;;;;;4988795;28;20217;-73
2022/11/29 12:48:14;;;;;;;17.40;15.55;;;6.50;99.90;;;;;;4988333;28;20272;-74
2022/11/29 12:51:04;;;;;;;16.77;14.98;;;6.40;99.90;;;;;;4993621;28;20671;-74
2022/11/29 12:53:53;;;;;;;17.55;15.32;;;6.30;99.90;;;;;;4993158;28;20186;-74
2022/11/29 12:56:38;;;;;;;16.90;14.50;;;6.30;99.90;;;;;;4987319;28;20205;-73
2022/11/29 12:59:22;;;;;;;17.83;15.00;;;6.30;99.90;;;;;;4991685;28;20182;-74
2022/11/29 13:02:19;;;;;;;17.33;14.20;;;6.20;99.90;;;;;;4986981;28;20197;-74
2022/11/29 13:05:00;;;;;;;17.50;14.43;;;6.20;99.90;;;;;;4983780;28;20259;-74
2022/11/29 13:07:59;;;;;;;18.50;15.63;;;6.20;99.90;;;;;;4993390;28;20180;-74
2022/11/29 13:10:34;;;;;;;18.33;15.23;;;6.10;99.90;;;;;;4993129;28;20178;-74
2022/11/29 13:13:07;;;;;;;18.98;14.90;;;6.10;99.90;;;;;;4989095;28;20716;-74
2022/11/29 13:15:39;;;;;;;16.67;14.82;;;6.10;99.90;;;;;;4993126;28;20205;-74
2022/11/29 13:18:16;;;;;;;17.00;15.07;;;6.20;99.90;;;;;;4978093;28;20218;-73
2022/11/29 13:20:46;;;;;;;16.58;14.80;;;6.20;99.90;;;;;;4989299;28;20272;-74
2022/11/29 13:23:21;;;;;;;18.77;15.15;;;6.20;99.90;;;;;;4991124;28;20287;-73
2022/11/29 13:25:50;;;;;;;16.05;13.77;;;6.10;99.90;;;;;;4989681;28;20247;-73